createdAt,value
2023-02-16T00:02:02.845Z,-2.41
2023-02-16T00:04:51.693Z,-2.54
2023-02-16T00:07:27.521Z,-2.55
2023-02-16T00:09:59.148Z,-2.62
2023-02-16T00:12:45.550Z,-2.62
2023-02-16T00:15:20.687Z,-2.72
2023-02-16T00:17:49.485Z,-2.66
2023-02-16T00:20:24.694Z,-2.64
2023-02-16T00:22:53.260Z,-2.57
2023-02-16T00:25:21.720Z,-2.55
2023-02-16T00:27:50.155Z,-2.57
2023-02-16T00:30:22.524Z,-2.48
2023-02-16T00:32:50.805Z,-2.49
2023-02-16T00:35:21.351Z,-2.54
2023-02-16T00:37:50.943Z,-2.59
2023-02-16T00:40:22.405Z,-2.62
2023-02-16T00:42:51.238Z,-2.57
2023-02-16T00:45:27.573Z,-2.58
2023-02-16T00:47:56.484Z,-2.59
2023-02-16T00:50:31.015Z,-2.58
2023-02-16T00:53:04.896Z,-2.62
2023-02-16T00:55:35.883Z,-2.62
2023-02-16T00:58:08.931Z,-2.69
2023-02-16T01:00:41.988Z,-2.73
2023-02-16T01:03:15.033Z,-2.75
2023-02-16T01:05:44.159Z,-2.75
2023-02-16T01:08:36.511Z,-2.76
2023-02-16T01:11:10.561Z,-2.93
2023-02-16T01:13:55.145Z,-2.99
2023-02-16T01:16:28.131Z,-3.08
2023-02-16T01:18:58.961Z,-3.16
2023-02-16T01:21:30.842Z,-3.41
2023-02-16T01:23:59.563Z,-3.38
2023-02-16T01:26:28.319Z,-3.38
2023-02-16T01:28:58.237Z,-3.45
2023-02-16T01:31:36.572Z,-3.47
2023-02-16T01:34:05.467Z,-3.47
2023-02-16T01:36:37.605Z,-3.48
2023-02-16T01:39:07.012Z,-3.51
2023-02-16T01:42:12.505Z,-3.55
2023-02-16T01:44:48.282Z,-3.43
2023-02-16T01:47:49.369Z,-3.48
2023-02-16T01:50:21.294Z,-3.44
2023-02-16T01:52:58.696Z,-3.38
2023-02-16T01:55:31.559Z,-3.41
2023-02-16T01:58:02.545Z,-3.38
2023-02-16T02:00:53.147Z,-3.50
2023-02-16T02:03:45.343Z,-3.44
2023-02-16T02:06:18.656Z,-3.41
2023-02-16T02:08:53.685Z,-3.56
2023-02-16T02:11:31.445Z,-3.69
2023-02-16T02:14:07.480Z,-3.66
2023-02-16T02:16:39.049Z,-3.72
2023-02-16T02:19:11.812Z,-3.74
2023-02-16T02:22:20.569Z,-3.71
2023-02-16T02:25:23.145Z,-3.65
2023-02-16T02:27:57.174Z,-3.54
2023-02-16T02:30:46.911Z,-3.68
2023-02-16T02:33:34.923Z,-3.69
2023-02-16T02:36:20.169Z,-3.75
2023-02-16T02:39:02.155Z,-3.79
2023-02-16T02:41:59.972Z,-3.79
2023-02-16T02:44:42.076Z,-3.83
2023-02-16T02:47:11.587Z,-3.85
2023-02-16T02:49:42.143Z,-3.86
2023-02-16T02:52:14.062Z,-3.87
2023-02-16T02:55:01.242Z,-3.89
2023-02-16T02:57:54.068Z,-3.90
2023-02-16T03:03:34.604Z,-3.92
2023-02-16T03:06:10.738Z,-3.89
2023-02-16T03:08:43.110Z,-3.93
2023-02-16T03:11:34.710Z,-3.96
2023-02-16T03:14:07.755Z,-3.97
2023-02-16T03:16:43.575Z,-3.95
2023-02-16T03:19:34.436Z,-3.89
2023-02-16T03:22:21.268Z,-3.85
2023-02-16T03:25:11.498Z,-3.93
2023-02-16T03:28:00.671Z,-4.05
2023-02-16T03:30:34.853Z,-4.07
2023-02-16T03:33:04.043Z,-4.06
2023-02-16T03:35:39.725Z,-3.99
2023-02-16T03:38:08.939Z,-3.87
2023-02-16T03:40:42.180Z,-3.97
2023-02-16T03:43:12.242Z,-3.97
2023-02-16T03:45:45.105Z,-4.02
2023-02-16T03:48:14.400Z,-4.02
2023-02-16T03:50:47.255Z,-4.00
2023-02-16T03:53:18.150Z,-4.03
2023-02-16T03:55:48.756Z,-4.02
2023-02-16T03:58:24.744Z,-4.00
2023-02-16T04:00:54.033Z,-3.96
2023-02-16T04:03:22.791Z,-3.92
2023-02-16T04:05:56.398Z,-3.97
2023-02-16T04:08:24.988Z,-4.00
2023-02-16T04:10:54.253Z,-4.03
2023-02-16T04:13:25.953Z,-3.99
2023-02-16T04:15:58.625Z,-4.00
2023-02-16T04:18:29.250Z,-3.93
2023-02-16T04:20:59.011Z,-3.95
2023-02-16T04:23:29.073Z,-3.92
2023-02-16T04:25:57.791Z,-4.02
2023-02-16T04:28:27.016Z,-4.10
2023-02-16T04:30:55.436Z,-4.21
2023-02-16T04:33:24.303Z,-4.34
2023-02-16T04:35:52.789Z,-4.47
2023-02-16T04:38:22.547Z,-4.44
2023-02-16T04:40:51.447Z,-4.47
2023-02-16T04:43:23.737Z,-4.43
2023-02-16T04:45:52.501Z,-4.45
2023-02-16T04:48:21.557Z,-4.57
2023-02-16T04:50:53.506Z,-4.60
2023-02-16T04:53:24.878Z,-4.44
2023-02-16T04:55:59.569Z,-4.54
2023-02-16T04:58:29.571Z,-4.50
2023-02-16T05:01:07.217Z,-4.45
2023-02-16T05:03:37.453Z,-4.45
2023-02-16T05:06:14.310Z,-4.44
2023-02-16T05:08:50.477Z,-4.30
2023-02-16T05:11:37.490Z,-4.24
2023-02-16T05:14:23.724Z,-4.10
2023-02-16T05:16:55.521Z,-3.89
2023-02-16T05:19:24.395Z,-3.83
2023-02-16T05:21:56.086Z,-3.76
2023-02-16T05:24:28.185Z,-3.81
2023-02-16T05:26:59.626Z,-3.68
2023-02-16T05:29:29.614Z,-3.64
2023-02-16T05:32:01.470Z,-3.62
2023-02-16T05:34:31.939Z,-3.54
2023-02-16T05:37:00.425Z,-3.50
2023-02-16T05:39:33.310Z,-3.50
2023-02-16T05:42:04.999Z,-3.48
2023-02-16T05:44:33.516Z,-3.43
2023-02-16T05:47:02.213Z,-3.35
2023-02-16T05:49:31.636Z,-3.40
2023-02-16T05:52:00.584Z,-3.34
2023-02-16T05:54:31.900Z,-3.26
2023-02-16T05:57:05.977Z,-3.21
2023-02-16T05:59:35.059Z,-3.13
2023-02-16T06:02:05.717Z,-3.10
2023-02-16T06:04:37.455Z,-3.00
2023-02-16T06:07:07.641Z,-3.03
2023-02-16T06:09:37.446Z,-2.96
2023-02-16T06:12:07.393Z,-2.96
2023-02-16T06:14:36.812Z,-2.92
2023-02-16T06:17:05.359Z,-2.82
2023-02-16T06:19:33.854Z,-2.78
2023-02-16T06:22:08.407Z,-2.70
2023-02-16T06:24:40.029Z,-2.55
2023-02-16T06:27:09.320Z,-2.55
2023-02-16T06:29:37.990Z,-2.47
2023-02-16T06:32:10.180Z,-2.48
2023-02-16T06:34:39.699Z,-2.45
2023-02-16T06:37:08.194Z,-2.34
2023-02-16T06:39:47.147Z,-2.33
2023-02-16T06:42:18.275Z,-2.33
2023-02-16T06:44:48.243Z,-2.21
2023-02-16T06:47:17.703Z,-2.28
2023-02-16T06:49:46.545Z,-2.14
2023-02-16T06:52:15.119Z,-2.13
2023-02-16T06:54:47.969Z,-2.14
2023-02-16T06:57:16.363Z,-1.93
2023-02-16T06:59:45.061Z,-1.96
2023-02-16T07:02:15.438Z,-1.94
2023-02-16T07:04:43.724Z,-1.91
2023-02-16T07:07:13.066Z,-2.03
2023-02-16T07:09:42.741Z,-1.91
2023-02-16T07:12:13.122Z,-2.01
2023-02-16T07:14:43.198Z,-2.09
2023-02-16T07:17:18.627Z,-1.99
2023-02-16T07:19:54.979Z,-1.86
2023-02-16T07:22:23.739Z,-1.55
2023-02-16T07:24:52.584Z,-1.55
2023-02-16T07:27:33.202Z,-1.89
2023-02-16T07:30:03.616Z,-1.96
2023-02-16T07:32:36.229Z,-1.94
2023-02-16T07:35:05.795Z,-2.04
2023-02-16T07:37:34.188Z,-1.96
2023-02-16T07:40:05.236Z,-1.85
2023-02-16T07:42:35.384Z,-2.04
2023-02-16T07:45:03.937Z,-1.99
2023-02-16T07:47:33.528Z,-1.72
2023-02-16T07:50:04.366Z,-1.89
2023-02-16T07:52:35.285Z,-1.65
2023-02-16T07:55:05.070Z,-1.49
2023-02-16T07:57:39.081Z,-1.45
2023-02-16T08:00:09.599Z,-1.56
2023-02-16T08:02:38.121Z,-1.44
2023-02-16T08:05:08.016Z,-1.41
2023-02-16T08:07:37.466Z,-1.17
2023-02-16T08:10:11.439Z,-1.28
2023-02-16T08:12:42.727Z,-1.21
2023-02-16T08:15:14.084Z,-1.03
2023-02-16T08:17:43.600Z,-0.97
2023-02-16T08:20:13.808Z,-0.61
2023-02-16T08:22:45.096Z,-0.72
2023-02-16T08:25:16.493Z,-0.74
2023-02-16T08:27:48.147Z,-0.61
2023-02-16T08:30:18.241Z,-0.25
2023-02-16T08:32:51.100Z,0.00
2023-02-16T08:35:23.348Z,-0.07
2023-02-16T08:37:58.018Z,-0.35
2023-02-16T08:40:26.740Z,0.07
2023-02-16T08:42:59.401Z,0.00
2023-02-16T08:45:27.852Z,0.47
2023-02-16T08:48:02.084Z,0.51
2023-02-16T08:50:32.966Z,0.71
2023-02-16T08:53:02.405Z,0.86
2023-02-16T08:55:32.251Z,1.00
2023-02-16T08:58:03.176Z,0.91
2023-02-16T09:00:41.395Z,1.19
2023-02-16T09:03:10.181Z,1.07
2023-02-16T09:05:39.236Z,1.29
2023-02-16T09:08:14.508Z,1.19
2023-02-16T09:10:46.669Z,1.39
2023-02-16T09:13:16.977Z,1.39
2023-02-16T09:15:47.988Z,1.58
2023-02-16T09:18:16.904Z,1.60
2023-02-16T09:20:47.119Z,1.64
2023-02-16T09:23:16.895Z,1.75
2023-02-16T09:25:45.546Z,1.72
2023-02-16T09:28:14.475Z,1.95
2023-02-16T09:30:46.356Z,2.25
2023-02-16T09:33:15.968Z,2.16
2023-02-16T09:35:44.752Z,2.19
2023-02-16T09:38:16.805Z,2.33
2023-02-16T09:40:45.919Z,2.74
2023-02-16T09:43:24.686Z,2.68
2023-02-16T09:45:58.962Z,2.95
2023-02-16T09:48:36.309Z,2.84
2023-02-16T09:51:14.688Z,2.97
2023-02-16T09:53:54.580Z,3.11
2023-02-16T09:56:29.545Z,3.16
2023-02-16T09:59:04.444Z,3.40
2023-02-16T10:01:41.323Z,3.64
2023-02-16T10:04:32.119Z,3.97
2023-02-16T10:07:14.968Z,4.62
2023-02-16T10:09:48.833Z,4.16
2023-02-16T10:12:23.974Z,4.46
2023-02-16T10:14:55.934Z,4.46
2023-02-16T10:17:29.769Z,4.92
2023-02-16T10:20:04.089Z,5.14
2023-02-16T10:22:39.562Z,5.10
2023-02-16T10:25:14.306Z,5.66
2023-02-16T10:27:47.087Z,5.69
2023-02-16T10:30:21.573Z,5.60
2023-02-16T10:32:59.455Z,5.77
2023-02-16T10:35:38.498Z,6.31
2023-02-16T10:38:20.134Z,5.86
2023-02-16T10:40:58.747Z,6.29
2023-02-16T10:43:42.199Z,6.35
2023-02-16T10:46:13.020Z,6.41
2023-02-16T10:48:42.951Z,6.48
2023-02-16T10:51:15.858Z,6.76
2023-02-16T10:53:47.644Z,6.80
2023-02-16T10:56:52.480Z,7.24
2023-02-16T10:59:23.976Z,7.71
2023-02-16T11:01:54.595Z,7.28
2023-02-16T11:04:40.901Z,7.34
2023-02-16T11:07:12.508Z,7.68
2023-02-16T11:09:51.198Z,7.89
2023-02-16T11:12:28.979Z,7.40
2023-02-16T11:15:06.111Z,7.85
2023-02-16T11:17:50.580Z,7.85
2023-02-16T11:20:35.425Z,7.82
2023-02-16T11:23:24.665Z,8.33
2023-02-16T11:25:58.376Z,8.03
2023-02-16T11:28:32.688Z,8.23
2023-02-16T11:31:16.425Z,8.23
2023-02-16T11:33:59.997Z,8.50
2023-02-16T11:36:40.372Z,7.90
2023-02-16T11:39:21.205Z,7.93
2023-02-16T11:41:52.769Z,8.10
2023-02-16T11:44:30.057Z,8.45
2023-02-16T11:46:59.579Z,8.54
2023-02-16T11:49:33.860Z,8.21
2023-02-16T11:52:25.220Z,8.55
2023-02-16T11:54:58.328Z,8.47
2023-02-16T11:57:32.436Z,8.41
2023-02-16T12:00:15.101Z,8.48
2023-02-16T12:03:25.379Z,8.31
2023-02-16T12:06:15.305Z,8.29
2023-02-16T12:09:00.573Z,8.51
2023-02-16T12:11:40.976Z,8.14
2023-02-16T12:14:27.365Z,8.62
2023-02-16T12:17:03.004Z,8.23
2023-02-16T12:19:42.265Z,8.64
2023-02-16T12:22:25.085Z,8.54
2023-02-16T12:25:19.867Z,8.54
2023-02-16T12:27:55.142Z,8.40
2023-02-16T12:30:40.977Z,8.52
2023-02-16T12:33:27.918Z,8.64
2023-02-16T12:36:11.475Z,8.79
2023-02-16T12:38:53.210Z,8.34
2023-02-16T12:41:32.285Z,8.54
2023-02-16T12:44:08.588Z,8.52
2023-02-16T12:46:43.209Z,8.68
2023-02-16T12:49:21.238Z,8.62
2023-02-16T12:51:54.303Z,9.05
2023-02-16T12:54:27.782Z,9.43
2023-02-16T12:57:05.801Z,9.26
2023-02-16T12:59:43.275Z,9.46
2023-02-16T13:02:18.897Z,9.41
2023-02-16T13:04:52.602Z,9.16
2023-02-16T13:07:28.827Z,9.12
2023-02-16T13:10:03.240Z,9.65
2023-02-16T13:12:37.408Z,9.88
2023-02-16T13:15:16.019Z,9.95
2023-02-16T13:17:48.422Z,9.71
2023-02-16T13:20:23.391Z,9.82
2023-02-16T13:23:23.970Z,10.12
2023-02-16T13:26:19.172Z,10.47
2023-02-16T13:29:04.609Z,10.01
2023-02-16T13:31:45.452Z,10.64
2023-02-16T13:34:28.780Z,9.79
2023-02-16T13:37:25.196Z,10.19
2023-02-16T13:40:13.053Z,10.17
2023-02-16T13:42:57.608Z,9.27
2023-02-16T13:45:30.717Z,10.23
2023-02-16T13:48:00.552Z,9.95
2023-02-16T13:50:32.492Z,9.03
2023-02-16T13:53:12.898Z,8.86
2023-02-16T13:55:42.929Z,9.09
2023-02-16T13:58:32.786Z,8.82
2023-02-16T14:01:39.288Z,8.93
2023-02-16T14:04:35.027Z,8.78
2023-02-16T14:07:36.641Z,8.93
2023-02-16T14:10:12.776Z,9.00
2023-02-16T14:12:44.482Z,9.16
2023-02-16T14:15:21.013Z,8.85
2023-02-16T14:17:50.985Z,8.72
2023-02-16T14:20:31.356Z,8.78
2023-02-16T14:23:01.153Z,9.02
2023-02-16T14:25:39.137Z,8.79
2023-02-16T14:28:47.985Z,8.95
2023-02-16T14:31:23.293Z,8.98
2023-02-16T14:34:04.655Z,8.65
2023-02-16T14:36:35.410Z,8.42
2023-02-16T14:39:04.936Z,8.54
2023-02-16T14:41:39.122Z,8.45
2023-02-16T14:44:31.756Z,8.55
2023-02-16T14:47:23.822Z,8.55
2023-02-16T14:50:15.293Z,8.61
2023-02-16T14:53:30.683Z,8.37
2023-02-16T14:56:39.880Z,8.41
2023-02-16T14:59:20.253Z,8.57
2023-02-16T15:01:49.356Z,8.41
2023-02-16T15:04:31.924Z,8.47
2023-02-16T15:07:07.643Z,8.31
2023-02-16T15:09:38.238Z,8.36
2023-02-16T15:12:24.862Z,8.20
2023-02-16T15:14:56.679Z,8.19
2023-02-16T15:17:35.019Z,8.02
2023-02-16T15:20:11.049Z,7.96
2023-02-16T15:22:51.871Z,7.87
2023-02-16T15:25:29.926Z,7.93
2023-02-16T15:28:01.914Z,7.75
2023-02-16T15:30:34.002Z,7.71
2023-02-16T15:33:04.203Z,7.50
2023-02-16T15:35:37.963Z,7.35
2023-02-16T15:38:21.096Z,7.54
2023-02-16T15:40:54.648Z,7.36
2023-02-16T15:43:31.943Z,7.35
2023-02-16T15:46:03.601Z,7.15
2023-02-16T15:48:33.163Z,7.17
2023-02-16T15:51:08.428Z,7.15
2023-02-16T15:53:48.507Z,7.11
2023-02-16T15:56:41.155Z,6.96
2023-02-16T15:59:33.568Z,6.75
2023-02-16T16:02:14.707Z,6.73
2023-02-16T16:04:46.765Z,6.73
2023-02-16T16:07:19.177Z,6.42
2023-02-16T16:09:49.069Z,6.39
2023-02-16T16:12:20.940Z,6.36
2023-02-16T16:15:02.641Z,6.25
2023-02-16T16:17:36.207Z,6.34
2023-02-16T16:20:27.992Z,6.35
2023-02-16T16:22:59.652Z,6.20
2023-02-16T16:25:42.920Z,6.17
2023-02-16T16:28:15.837Z,6.24
2023-02-16T16:30:47.257Z,6.24
2023-02-16T16:33:26.485Z,6.22
2023-02-16T16:35:57.844Z,6.14
2023-02-16T16:38:29.996Z,6.16
2023-02-16T16:41:03.676Z,6.07
2023-02-16T16:43:35.348Z,6.04
2023-02-16T16:46:15.498Z,5.87
2023-02-16T16:48:48.203Z,5.89
2023-02-16T16:51:19.018Z,5.73
2023-02-16T16:54:00.718Z,5.65
2023-02-16T16:56:36.688Z,5.59
2023-02-16T16:59:08.940Z,5.45
2023-02-16T17:01:38.281Z,5.45
2023-02-16T17:04:07.559Z,5.48
2023-02-16T17:06:36.139Z,5.45
2023-02-16T17:09:05.785Z,5.43
2023-02-16T17:11:39.866Z,5.43
2023-02-16T17:14:11.723Z,5.49
2023-02-16T17:16:48.444Z,5.40
2023-02-16T17:19:21.531Z,5.49
2023-02-16T17:21:53.418Z,5.32
2023-02-16T17:24:22.711Z,5.27
2023-02-16T17:26:54.092Z,5.19
2023-02-16T17:29:28.219Z,5.10
2023-02-16T17:31:58.558Z,4.87
2023-02-16T17:34:31.804Z,4.77
2023-02-16T17:37:06.224Z,4.64
2023-02-16T17:39:36.207Z,4.52
2023-02-16T17:42:12.711Z,4.39
2023-02-16T17:44:44.423Z,4.41
2023-02-16T17:47:18.160Z,4.43
2023-02-16T17:49:49.014Z,4.29
2023-02-16T17:52:17.590Z,4.28
2023-02-16T17:54:49.754Z,4.28
2023-02-16T17:57:23.437Z,4.16
2023-02-16T17:59:52.410Z,4.14
2023-02-16T18:02:24.458Z,4.08
2023-02-16T18:04:54.313Z,3.90
2023-02-16T18:07:26.067Z,3.90
2023-02-16T18:09:56.817Z,3.87
2023-02-16T18:12:31.942Z,3.64
2023-02-16T18:15:00.854Z,3.44
2023-02-16T18:17:37.096Z,3.42
2023-02-16T18:20:10.883Z,3.33
2023-02-16T18:22:43.378Z,3.19
2023-02-16T18:25:12.228Z,2.51
2023-02-16T18:27:41.930Z,2.03
2023-02-16T18:30:13.212Z,1.97
2023-02-16T18:32:45.084Z,2.02
2023-02-16T18:35:16.092Z,2.05
2023-02-16T18:37:45.502Z,2.12
2023-02-16T18:40:17.136Z,2.25
2023-02-16T18:42:49.360Z,2.34
2023-02-16T18:45:18.911Z,2.44
2023-02-16T18:47:47.791Z,2.48
2023-02-16T18:50:17.237Z,2.33
2023-02-16T18:52:51.175Z,1.89
2023-02-16T18:55:20.087Z,1.68
2023-02-16T18:57:52.421Z,2.02
2023-02-16T19:00:21.892Z,2.23
2023-02-16T19:02:51.244Z,2.08
2023-02-16T19:05:20.358Z,1.89
2023-02-16T19:07:50.073Z,1.82
2023-02-16T19:10:20.024Z,1.77
2023-02-16T19:12:56.646Z,1.65
2023-02-16T19:15:26.757Z,1.58
2023-02-16T19:17:55.778Z,1.46
2023-02-16T19:20:26.984Z,1.23
2023-02-16T19:22:57.288Z,1.13
2023-02-16T19:25:27.036Z,0.97
2023-02-16T19:28:00.311Z,0.96
2023-02-16T19:30:31.685Z,0.79
2023-02-16T19:33:03.221Z,0.66
2023-02-16T19:35:31.817Z,0.57
2023-02-16T19:38:01.759Z,0.54
2023-02-16T19:40:30.887Z,0.48
2023-02-16T19:43:01.450Z,0.48
2023-02-16T19:45:31.566Z,0.36
2023-02-16T19:48:00.973Z,0.38
2023-02-16T19:50:31.897Z,0.40
2023-02-16T19:53:01.477Z,0.34
2023-02-16T19:55:32.586Z,0.27
2023-02-16T19:58:03.663Z,0.23
2023-02-16T20:00:34.286Z,0.17
2023-02-16T20:03:04.790Z,0.07
2023-02-16T20:05:33.885Z,0.07
2023-02-16T20:08:02.846Z,0.09
2023-02-16T20:10:33.768Z,-0.01
2023-02-16T20:13:05.466Z,0.03
2023-02-16T20:15:34.024Z,0.00
2023-02-16T20:18:08.130Z,-0.11
2023-02-16T20:20:40.303Z,-0.17
2023-02-16T20:23:10.044Z,-0.22
2023-02-16T20:25:42.018Z,-0.11
2023-02-16T20:28:12.446Z,0.07
2023-02-16T20:30:49.297Z,0.24
2023-02-16T20:33:19.599Z,-0.01
2023-02-16T20:35:49.073Z,-0.15
2023-02-16T20:38:18.437Z,-0.14
2023-02-16T20:40:49.887Z,-0.21
2023-02-16T20:43:22.474Z,-0.22
2023-02-16T20:45:52.143Z,-0.25
2023-02-16T20:48:21.770Z,-0.28
2023-02-16T20:50:55.188Z,-0.42
2023-02-16T20:53:28.816Z,-0.14
2023-02-16T20:56:03.016Z,-0.44
2023-02-16T20:58:35.231Z,-0.52
2023-02-16T21:01:07.567Z,-0.51
2023-02-16T21:03:36.312Z,-0.39
2023-02-16T21:06:06.485Z,-0.49
2023-02-16T21:08:36.552Z,-0.66
2023-02-16T21:11:06.840Z,-0.76
2023-02-16T21:13:41.519Z,-0.66
2023-02-16T21:16:16.968Z,-0.70
2023-02-16T21:18:46.358Z,-0.53
2023-02-16T21:21:17.371Z,-0.25
2023-02-16T21:23:48.408Z,-0.49
2023-02-16T21:26:18.768Z,-0.55
2023-02-16T21:28:53.045Z,-0.55
2023-02-16T21:31:25.134Z,-0.51
2023-02-16T21:33:59.527Z,-0.49
2023-02-16T21:36:28.832Z,-0.45
2023-02-16T21:39:02.966Z,-0.21
2023-02-16T21:41:31.421Z,-0.15
2023-02-16T21:44:04.992Z,-0.53
2023-02-16T21:46:35.312Z,-0.83
2023-02-16T21:49:04.506Z,-1.05
2023-02-16T21:51:35.216Z,-1.08
2023-02-16T21:54:06.213Z,-0.94
2023-02-16T21:56:42.185Z,-0.82
2023-02-16T21:59:22.277Z,-0.39
2023-02-16T22:01:59.719Z,-0.25
2023-02-16T22:04:28.670Z,-0.69
2023-02-16T22:06:58.005Z,-0.72
2023-02-16T22:09:27.257Z,-0.49
2023-02-16T22:11:58.300Z,-0.18
2023-02-16T22:14:34.645Z,0.34
2023-02-16T22:17:06.622Z,-0.52
2023-02-16T22:19:47.806Z,-1.21
2023-02-16T22:22:19.128Z,-0.96
2023-02-16T22:24:51.859Z,-0.90
2023-02-16T22:27:23.755Z,-0.72
2023-02-16T22:29:54.084Z,-0.65
2023-02-16T22:32:24.988Z,-0.70
2023-02-16T22:34:54.702Z,-0.65
2023-02-16T22:37:24.058Z,-0.41
2023-02-16T22:39:55.133Z,-0.49
2023-02-16T22:42:24.132Z,-0.48
2023-02-16T22:44:55.808Z,-0.48
2023-02-16T22:47:25.329Z,-0.66
2023-02-16T22:49:55.012Z,-0.65
2023-02-16T22:52:25.848Z,-0.46
2023-02-16T22:54:54.984Z,-0.19
2023-02-16T22:57:26.146Z,-0.28
2023-02-16T22:59:59.905Z,-0.52
2023-02-16T23:02:28.704Z,-0.56
2023-02-16T23:04:58.665Z,-0.61
2023-02-16T23:07:27.822Z,-0.74
2023-02-16T23:09:56.817Z,-0.79
2023-02-16T23:12:25.161Z,-0.92
2023-02-16T23:14:56.064Z,-0.96
2023-02-16T23:17:34.836Z,-0.82
2023-02-16T23:20:12.179Z,-0.68
2023-02-16T23:22:41.476Z,-0.83
2023-02-16T23:25:32.079Z,-0.99
2023-02-16T23:28:03.404Z,-1.01
2023-02-16T23:30:32.760Z,-1.13
2023-02-16T23:33:03.601Z,-1.27
2023-02-16T23:35:31.846Z,-1.17
2023-02-16T23:38:02.836Z,-1.13
2023-02-16T23:40:37.551Z,-1.18
2023-02-16T23:43:06.526Z,-1.38
2023-02-16T23:45:37.394Z,-1.41
2023-02-16T23:48:08.048Z,-1.44
2023-02-16T23:50:37.818Z,-1.44
2023-02-16T23:53:06.857Z,-1.28
2023-02-16T23:55:38.197Z,-1.31
2023-02-16T23:58:09.037Z,-1.42
